sensor_id;sensor_type;location;lat;lon;timestamp;P1;durP1;ratioP1;P2;durP2;ratioP2
30723;SDS011;17473;52.286;20.930;2023-04-28T00:02:00;28.93;;;14.90;;
30723;SDS011;17473;52.286;20.930;2023-04-28T00:04:28;32.37;;;13.73;;
30723;SDS011;17473;52.286;20.930;2023-04-28T00:06:55;30.90;;;13.67;;
30723;SDS011;17473;52.286;20.930;2023-04-28T00:09:22;26.40;;;13.27;;
30723;SDS011;17473;52.286;20.930;2023-04-28T00:11:49;32.00;;;15.13;;
30723;SDS011;17473;52.286;20.930;2023-04-28T00:14:16;32.37;;;14.67;;
30723;SDS011;17473;52.286;20.930;2023-04-28T00:16:44;33.37;;;16.03;;
30723;SDS011;17473;52.286;20.930;2023-04-28T00:19:11;30.50;;;15.50;;
30723;SDS011;17473;52.286;20.930;2023-04-28T00:21:38;26.83;;;15.37;;
30723;SDS011;17473;52.286;20.930;2023-04-28T00:24:05;25.13;;;14.27;;
30723;SDS011;17473;52.286;20.930;2023-04-28T00:26:32;28.27;;;14.33;;
30723;SDS011;17473;52.286;20.930;2023-04-28T00:28:59;28.50;;;14.60;;
30723;SDS011;17473;52.286;20.930;2023-04-28T00:31:26;26.20;;;14.50;;
30723;SDS011;17473;52.286;20.930;2023-04-28T00:33:53;30.47;;;14.03;;
30723;SDS011;17473;52.286;20.930;2023-04-28T00:36:21;29.67;;;14.70;;
30723;SDS011;17473;52.286;20.930;2023-04-28T00:38:48;28.97;;;14.27;;
30723;SDS011;17473;52.286;20.930;2023-04-28T00:41:15;28.87;;;14.00;;
30723;SDS011;17473;52.286;20.930;2023-04-28T00:43:48;27.97;;;14.20;;
30723;SDS011;17473;52.286;20.930;2023-04-28T00:46:23;28.80;;;14.17;;
30723;SDS011;17473;52.286;20.930;2023-04-28T00:48:54;39.37;;;14.80;;
30723;SDS011;17473;52.286;20.930;2023-04-28T00:51:22;31.53;;;13.87;;
30723;SDS011;17473;52.286;20.930;2023-04-28T00:53:49;29.33;;;13.93;;
30723;SDS011;17473;52.286;20.930;2023-04-28T00:56:17;25.03;;;12.90;;
30723;SDS011;17473;52.286;20.930;2023-04-28T00:58:44;29.57;;;13.37;;
30723;SDS011;17473;52.286;20.930;2023-04-28T01:01:11;25.53;;;13.07;;
30723;SDS011;17473;52.286;20.930;2023-04-28T01:03:39;33.90;;;13.97;;
30723;SDS011;17473;52.286;20.930;2023-04-28T01:06:07;26.10;;;13.33;;
30723;SDS011;17473;52.286;20.930;2023-04-28T01:08:35;31.53;;;13.80;;
30723;SDS011;17473;52.286;20.930;2023-04-28T01:11:04;24.07;;;13.43;;
30723;SDS011;17473;52.286;20.930;2023-04-28T01:13:32;27.30;;;12.80;;
30723;SDS011;17473;52.286;20.930;2023-04-28T01:15:59;25.00;;;13.23;;
30723;SDS011;17473;52.286;20.930;2023-04-28T01:18:26;25.47;;;12.80;;
30723;SDS011;17473;52.286;20.930;2023-04-28T01:20:54;34.33;;;13.27;;
30723;SDS011;17473;52.286;20.930;2023-04-28T01:23:21;26.90;;;13.43;;
30723;SDS011;17473;52.286;20.930;2023-04-28T01:25:48;25.30;;;12.20;;
30723;SDS011;17473;52.286;20.930;2023-04-28T01:28:15;27.10;;;14.00;;
30723;SDS011;17473;52.286;20.930;2023-04-28T01:30:42;27.97;;;13.37;;
30723;SDS011;17473;52.286;20.930;2023-04-28T01:33:09;25.77;;;13.53;;
30723;SDS011;17473;52.286;20.930;2023-04-28T01:35:36;28.73;;;12.97;;
30723;SDS011;17473;52.286;20.930;2023-04-28T01:38:04;31.83;;;13.47;;
30723;SDS011;17473;52.286;20.930;2023-04-28T01:40:31;24.80;;;13.23;;
30723;SDS011;17473;52.286;20.930;2023-04-28T01:42:58;26.03;;;13.50;;
30723;SDS011;17473;52.286;20.930;2023-04-28T01:45:25;27.80;;;14.33;;
30723;SDS011;17473;52.286;20.930;2023-04-28T01:47:52;26.60;;;13.67;;
30723;SDS011;17473;52.286;20.930;2023-04-28T01:50:19;25.40;;;14.10;;
30723;SDS011;17473;52.286;20.930;2023-04-28T01:52:46;23.63;;;13.57;;
30723;SDS011;17473;52.286;20.930;2023-04-28T01:55:13;29.30;;;13.63;;
30723;SDS011;17473;52.286;20.930;2023-04-28T01:57:40;27.30;;;14.17;;
30723;SDS011;17473;52.286;20.930;2023-04-28T02:00:07;26.23;;;13.70;;
30723;SDS011;17473;52.286;20.930;2023-04-28T02:02:35;23.20;;;13.40;;
30723;SDS011;17473;52.286;20.930;2023-04-28T02:05:02;27.93;;;14.27;;
30723;SDS011;17473;52.286;20.930;2023-04-28T02:07:29;43.57;;;15.00;;
30723;SDS011;17473;52.286;20.930;2023-04-28T02:09:56;28.70;;;13.97;;
30723;SDS011;17473;52.286;20.930;2023-04-28T02:12:23;28.10;;;14.50;;
30723;SDS011;17473;52.286;20.930;2023-04-28T02:14:51;31.93;;;14.27;;
30723;SDS011;17473;52.286;20.930;2023-04-28T02:17:18;32.53;;;14.57;;
30723;SDS011;17473;52.286;20.930;2023-04-28T02:19:45;26.93;;;14.20;;
30723;SDS011;17473;52.286;20.930;2023-04-28T02:22:12;30.17;;;14.37;;
30723;SDS011;17473;52.286;20.930;2023-04-28T02:24:39;27.77;;;14.77;;
30723;SDS011;17473;52.286;20.930;2023-04-28T02:27:06;27.70;;;14.00;;
30723;SDS011;17473;52.286;20.930;2023-04-28T02:29:33;36.50;;;15.00;;
30723;SDS011;17473;52.286;20.930;2023-04-28T02:32:00;30.00;;;15.47;;
30723;SDS011;17473;52.286;20.930;2023-04-28T02:34:27;38.60;;;15.47;;
30723;SDS011;17473;52.286;20.930;2023-04-28T02:36:54;30.93;;;15.00;;
30723;SDS011;17473;52.286;20.930;2023-04-28T02:39:21;28.47;;;15.03;;
30723;SDS011;17473;52.286;20.930;2023-04-28T02:41:50;30.67;;;14.23;;
30723;SDS011;17473;52.286;20.930;2023-04-28T02:44:18;28.23;;;13.90;;
30723;SDS011;17473;52.286;20.930;2023-04-28T02:46:46;32.17;;;15.60;;
30723;SDS011;17473;52.286;20.930;2023-04-28T02:49:13;26.80;;;14.70;;
30723;SDS011;17473;52.286;20.930;2023-04-28T02:51:40;28.73;;;13.97;;
30723;SDS011;17473;52.286;20.930;2023-04-28T02:54:07;27.27;;;15.90;;
30723;SDS011;17473;52.286;20.930;2023-04-28T02:56:34;30.80;;;15.40;;
30723;SDS011;17473;52.286;20.930;2023-04-28T02:59:02;30.57;;;15.97;;
30723;SDS011;17473;52.286;20.930;2023-04-28T03:01:29;30.70;;;15.30;;
30723;SDS011;17473;52.286;20.930;2023-04-28T03:03:56;30.90;;;14.73;;
30723;SDS011;17473;52.286;20.930;2023-04-28T03:06:23;33.93;;;15.20;;
30723;SDS011;17473;52.286;20.930;2023-04-28T03:08:51;41.73;;;16.30;;
30723;SDS011;17473;52.286;20.930;2023-04-28T03:11:18;30.23;;;15.93;;
30723;SDS011;17473;52.286;20.930;2023-04-28T03:13:45;35.67;;;15.90;;
30723;SDS011;17473;52.286;20.930;2023-04-28T03:16:12;38.80;;;15.37;;
30723;SDS011;17473;52.286;20.930;2023-04-28T03:18:39;38.20;;;16.97;;
30723;SDS011;17473;52.286;20.930;2023-04-28T03:21:06;32.27;;;15.60;;
30723;SDS011;17473;52.286;20.930;2023-04-28T03:23:34;33.67;;;15.60;;
30723;SDS011;17473;52.286;20.930;2023-04-28T03:26:01;34.67;;;16.53;;
30723;SDS011;17473;52.286;20.930;2023-04-28T03:28:28;35.03;;;17.27;;
30723;SDS011;17473;52.286;20.930;2023-04-28T03:30:55;27.40;;;15.47;;
30723;SDS011;17473;52.286;20.930;2023-04-28T03:33:22;28.67;;;15.43;;
30723;SDS011;17473;52.286;20.930;2023-04-28T03:35:49;37.10;;;16.10;;
30723;SDS011;17473;52.286;20.930;2023-04-28T03:38:16;43.83;;;17.07;;
30723;SDS011;17473;52.286;20.930;2023-04-28T03:40:43;29.30;;;16.47;;
30723;SDS011;17473;52.286;20.930;2023-04-28T03:43:11;25.97;;;16.27;;
30723;SDS011;17473;52.286;20.930;2023-04-28T03:45:38;31.43;;;16.23;;
30723;SDS011;17473;52.286;20.930;2023-04-28T03:48:06;33.03;;;15.97;;
30723;SDS011;17473;52.286;20.930;2023-04-28T03:50:33;31.73;;;16.27;;
30723;SDS011;17473;52.286;20.930;2023-04-28T03:53:01;27.77;;;15.63;;
30723;SDS011;17473;52.286;20.930;2023-04-28T03:55:28;34.57;;;15.20;;
30723;SDS011;17473;52.286;20.930;2023-04-28T03:57:55;40.27;;;16.43;;
30723;SDS011;17473;52.286;20.930;2023-04-28T04:00:22;32.80;;;15.90;;
30723;SDS011;17473;52.286;20.930;2023-04-28T04:02:49;37.93;;;14.87;;
30723;SDS011;17473;52.286;20.930;2023-04-28T04:05:16;29.53;;;15.57;;
30723;SDS011;17473;52.286;20.930;2023-04-28T04:07:43;30.97;;;15.07;;
30723;SDS011;17473;52.286;20.930;2023-04-28T04:10:10;28.37;;;15.30;;
30723;SDS011;17473;52.286;20.930;2023-04-28T04:12:37;33.07;;;15.53;;
30723;SDS011;17473;52.286;20.930;2023-04-28T04:15:05;34.03;;;16.10;;
30723;SDS011;17473;52.286;20.930;2023-04-28T04:17:32;23.87;;;14.27;;
30723;SDS011;17473;52.286;20.930;2023-04-28T04:20:00;32.37;;;15.47;;
30723;SDS011;17473;52.286;20.930;2023-04-28T04:22:27;25.40;;;13.90;;
30723;SDS011;17473;52.286;20.930;2023-04-28T04:24:54;27.13;;;15.03;;
30723;SDS011;17473;52.286;20.930;2023-04-28T04:27:21;30.17;;;14.93;;
30723;SDS011;17473;52.286;20.930;2023-04-28T04:29:48;25.40;;;14.77;;
30723;SDS011;17473;52.286;20.930;2023-04-28T04:32:15;23.90;;;15.50;;
30723;SDS011;17473;52.286;20.930;2023-04-28T04:34:42;36.90;;;16.10;;
30723;SDS011;17473;52.286;20.930;2023-04-28T04:37:10;28.90;;;15.60;;
30723;SDS011;17473;52.286;20.930;2023-04-28T04:39:37;30.08;;;14.18;;
30723;SDS011;17473;52.286;20.930;2023-04-28T04:42:04;26.92;;;14.07;;
30723;SDS011;17473;52.286;20.930;2023-04-28T04:44:49;31.38;;;15.32;;
30723;SDS011;17473;52.286;20.930;2023-04-28T04:47:16;25.98;;;14.45;;
30723;SDS011;17473;52.286;20.930;2023-04-28T04:49:44;25.70;;;14.82;;
30723;SDS011;17473;52.286;20.930;2023-04-28T04:52:11;28.45;;;15.23;;
30723;SDS011;17473;52.286;20.930;2023-04-28T04:54:38;24.45;;;14.55;;
30723;SDS011;17473;52.286;20.930;2023-04-28T04:57:05;24.58;;;14.80;;
30723;SDS011;17473;52.286;20.930;2023-04-28T04:59:33;28.52;;;15.25;;
30723;SDS011;17473;52.286;20.930;2023-04-28T05:02:00;24.52;;;14.13;;
30723;SDS011;17473;52.286;20.930;2023-04-28T05:04:27;25.15;;;14.95;;
30723;SDS011;17473;52.286;20.930;2023-04-28T05:06:54;25.15;;;15.18;;
30723;SDS011;17473;52.286;20.930;2023-04-28T05:09:24;24.13;;;14.85;;
30723;SDS011;17473;52.286;20.930;2023-04-28T05:11:52;26.40;;;14.77;;
30723;SDS011;17473;52.286;20.930;2023-04-28T05:14:19;23.17;;;13.63;;
30723;SDS011;17473;52.286;20.930;2023-04-28T05:16:46;29.85;;;16.50;;
30723;SDS011;17473;52.286;20.930;2023-04-28T05:19:13;25.33;;;15.35;;
30723;SDS011;17473;52.286;20.930;2023-04-28T05:21:41;25.35;;;14.30;;
30723;SDS011;17473;52.286;20.930;2023-04-28T05:24:08;26.30;;;15.18;;
30723;SDS011;17473;52.286;20.930;2023-04-28T05:26:35;24.98;;;14.27;;
30723;SDS011;17473;52.286;20.930;2023-04-28T05:29:02;23.65;;;13.98;;
30723;SDS011;17473;52.286;20.930;2023-04-28T05:31:29;24.98;;;14.48;;
30723;SDS011;17473;52.286;20.930;2023-04-28T05:33:56;24.40;;;14.20;;
30723;SDS011;17473;52.286;20.930;2023-04-28T05:36:24;25.88;;;14.25;;
30723;SDS011;17473;52.286;20.930;2023-04-28T05:38:51;24.52;;;13.98;;
30723;SDS011;17473;52.286;20.930;2023-04-28T05:41:19;23.15;;;13.70;;
30723;SDS011;17473;52.286;20.930;2023-04-28T05:43:46;23.55;;;14.60;;
30723;SDS011;17473;52.286;20.930;2023-04-28T05:46:16;23.30;;;14.25;;
30723;SDS011;17473;52.286;20.930;2023-04-28T05:48:55;25.48;;;13.75;;
30723;SDS011;17473;52.286;20.930;2023-04-28T05:51:22;37.05;;;15.27;;
30723;SDS011;17473;52.286;20.930;2023-04-28T05:53:50;33.05;;;14.75;;
30723;SDS011;17473;52.286;20.930;2023-04-28T05:56:17;24.67;;;13.02;;
30723;SDS011;17473;52.286;20.930;2023-04-28T05:58:44;27.58;;;13.55;;
30723;SDS011;17473;52.286;20.930;2023-04-28T06:01:12;23.75;;;13.52;;
30723;SDS011;17473;52.286;20.930;2023-04-28T06:03:39;22.38;;;13.73;;
30723;SDS011;17473;52.286;20.930;2023-04-28T06:06:10;22.48;;;14.00;;
30723;SDS011;17473;52.286;20.930;2023-04-28T06:08:37;31.85;;;13.80;;
30723;SDS011;17473;52.286;20.930;2023-04-28T06:11:04;24.98;;;12.85;;
30723;SDS011;17473;52.286;20.930;2023-04-28T06:13:32;20.23;;;11.93;;
30723;SDS011;17473;52.286;20.930;2023-04-28T06:15:59;21.38;;;12.20;;
30723;SDS011;17473;52.286;20.930;2023-04-28T06:18:26;23.10;;;11.98;;
30723;SDS011;17473;52.286;20.930;2023-04-28T06:20:57;21.23;;;11.63;;
30723;SDS011;17473;52.286;20.930;2023-04-28T06:23:24;20.77;;;11.80;;
30723;SDS011;17473;52.286;20.930;2023-04-28T06:25:51;18.20;;;11.70;;
30723;SDS011;17473;52.286;20.930;2023-04-28T06:28:18;19.30;;;11.52;;
30723;SDS011;17473;52.286;20.930;2023-04-28T06:30:46;21.20;;;11.07;;
30723;SDS011;17473;52.286;20.930;2023-04-28T06:33:13;22.35;;;11.70;;
30723;SDS011;17473;52.286;20.930;2023-04-28T06:35:40;18.30;;;11.55;;
30723;SDS011;17473;52.286;20.930;2023-04-28T06:38:07;13.68;;;9.52;;
30723;SDS011;17473;52.286;20.930;2023-04-28T06:40:34;23.33;;;9.60;;
30723;SDS011;17473;52.286;20.930;2023-04-28T06:43:02;15.85;;;10.10;;
30723;SDS011;17473;52.286;20.930;2023-04-28T06:45:29;12.10;;;9.32;;
30723;SDS011;17473;52.286;20.930;2023-04-28T06:47:56;15.70;;;9.23;;
30723;SDS011;17473;52.286;20.930;2023-04-28T06:50:23;17.98;;;9.07;;
30723;SDS011;17473;52.286;20.930;2023-04-28T06:52:50;16.70;;;10.18;;
30723;SDS011;17473;52.286;20.930;2023-04-28T06:55:17;18.65;;;9.63;;
30723;SDS011;17473;52.286;20.930;2023-04-28T06:57:45;13.90;;;8.02;;
30723;SDS011;17473;52.286;20.930;2023-04-28T07:00:12;14.10;;;8.02;;
30723;SDS011;17473;52.286;20.930;2023-04-28T07:02:41;12.35;;;7.05;;
30723;SDS011;17473;52.286;20.930;2023-04-28T07:05:08;13.50;;;7.32;;
30723;SDS011;17473;52.286;20.930;2023-04-28T07:07:35;15.48;;;7.22;;
30723;SDS011;17473;52.286;20.930;2023-04-28T07:10:05;14.80;;;6.93;;
30723;SDS011;17473;52.286;20.930;2023-04-28T07:12:33;16.10;;;6.82;;
30723;SDS011;17473;52.286;20.930;2023-04-28T07:15:00;15.38;;;7.55;;
30723;SDS011;17473;52.286;20.930;2023-04-28T07:17:27;15.77;;;6.85;;
30723;SDS011;17473;52.286;20.930;2023-04-28T07:19:54;11.90;;;6.85;;
30723;SDS011;17473;52.286;20.930;2023-04-28T07:22:21;13.25;;;6.65;;
30723;SDS011;17473;52.286;20.930;2023-04-28T07:24:48;12.23;;;6.60;;
30723;SDS011;17473;52.286;20.930;2023-04-28T07:27:15;9.90;;;5.57;;
30723;SDS011;17473;52.286;20.930;2023-04-28T07:29:42;11.52;;;5.40;;
30723;SDS011;17473;52.286;20.930;2023-04-28T07:32:10;10.20;;;4.97;;
30723;SDS011;17473;52.286;20.930;2023-04-28T07:34:37;8.13;;;4.85;;
30723;SDS011;17473;52.286;20.930;2023-04-28T07:37:04;9.63;;;4.63;;
30723;SDS011;17473;52.286;20.930;2023-04-28T07:39:33;8.02;;;4.03;;
30723;SDS011;17473;52.286;20.930;2023-04-28T07:42:00;8.13;;;3.72;;
30723;SDS011;17473;52.286;20.930;2023-04-28T07:44:29;7.03;;;3.60;;
30723;SDS011;17473;52.286;20.930;2023-04-28T07:46:57;13.23;;;3.90;;
30723;SDS011;17473;52.286;20.930;2023-04-28T07:49:27;11.05;;;3.85;;
30723;SDS011;17473;52.286;20.930;2023-04-28T07:51:54;9.82;;;3.30;;
30723;SDS011;17473;52.286;20.930;2023-04-28T07:54:23;6.53;;;3.33;;
30723;SDS011;17473;52.286;20.930;2023-04-28T07:56:50;7.05;;;3.35;;
30723;SDS011;17473;52.286;20.930;2023-04-28T07:59:18;9.77;;;3.58;;
30723;SDS011;17473;52.286;20.930;2023-04-28T08:01:45;8.77;;;3.88;;
30723;SDS011;17473;52.286;20.930;2023-04-28T08:04:12;13.35;;;3.03;;
30723;SDS011;17473;52.286;20.930;2023-04-28T08:06:40;7.40;;;3.30;;
30723;SDS011;17473;52.286;20.930;2023-04-28T08:09:07;10.05;;;3.20;;
30723;SDS011;17473;52.286;20.930;2023-04-28T08:11:34;9.45;;;2.42;;
30723;SDS011;17473;52.286;20.930;2023-04-28T08:14:01;6.57;;;3.30;;
30723;SDS011;17473;52.286;20.930;2023-04-28T08:16:29;4.43;;;2.40;;
30723;SDS011;17473;52.286;20.930;2023-04-28T08:18:57;6.03;;;2.83;;
30723;SDS011;17473;52.286;20.930;2023-04-28T08:21:25;5.45;;;2.72;;
30723;SDS011;17473;52.286;20.930;2023-04-28T08:23:52;6.47;;;1.98;;
30723;SDS011;17473;52.286;20.930;2023-04-28T08:26:19;5.93;;;2.80;;
30723;SDS011;17473;52.286;20.930;2023-04-28T08:28:47;4.93;;;2.28;;
30723;SDS011;17473;52.286;20.930;2023-04-28T08:31:14;7.43;;;2.70;;
30723;SDS011;17473;52.286;20.930;2023-04-28T08:33:41;6.13;;;2.85;;
30723;SDS011;17473;52.286;20.930;2023-04-28T08:36:13;4.40;;;2.50;;
30723;SDS011;17473;52.286;20.930;2023-04-28T08:38:41;6.18;;;2.42;;
30723;SDS011;17473;52.286;20.930;2023-04-28T08:41:10;5.13;;;2.88;;
30723;SDS011;17473;52.286;20.930;2023-04-28T08:43:41;6.78;;;3.20;;
30723;SDS011;17473;52.286;20.930;2023-04-28T08:46:08;10.27;;;3.60;;
30723;SDS011;17473;52.286;20.930;2023-04-28T08:48:40;6.22;;;2.90;;
30723;SDS011;17473;52.286;20.930;2023-04-28T08:51:13;3.72;;;2.10;;
30723;SDS011;17473;52.286;20.930;2023-04-28T08:53:43;3.47;;;2.08;;
30723;SDS011;17473;52.286;20.930;2023-04-28T08:56:21;3.78;;;1.83;;
30723;SDS011;17473;52.286;20.930;2023-04-28T08:58:50;2.50;;;1.60;;
30723;SDS011;17473;52.286;20.930;2023-04-28T09:01:19;7.10;;;1.90;;
30723;SDS011;17473;52.286;20.930;2023-04-28T09:03:46;11.38;;;2.28;;
30723;SDS011;17473;52.286;20.930;2023-04-28T09:06:14;3.70;;;1.70;;
30723;SDS011;17473;52.286;20.930;2023-04-28T09:08:41;3.40;;;1.45;;
30723;SDS011;17473;52.286;20.930;2023-04-28T09:11:11;3.13;;;2.05;;
30723;SDS011;17473;52.286;20.930;2023-04-28T09:13:39;13.65;;;2.10;;
30723;SDS011;17473;52.286;20.930;2023-04-28T09:16:06;5.07;;;2.38;;
30723;SDS011;17473;52.286;20.930;2023-04-28T09:18:33;6.72;;;1.95;;
30723;SDS011;17473;52.286;20.930;2023-04-28T09:21:07;5.07;;;1.77;;
30723;SDS011;17473;52.286;20.930;2023-04-28T09:23:45;6.13;;;1.80;;
30723;SDS011;17473;52.286;20.930;2023-04-28T09:26:14;3.92;;;1.95;;
30723;SDS011;17473;52.286;20.930;2023-04-28T09:28:41;6.50;;;2.10;;
30723;SDS011;17473;52.286;20.930;2023-04-28T09:31:21;3.08;;;2.40;;
30723;SDS011;17473;52.286;20.930;2023-04-28T09:33:57;6.90;;;2.25;;
30723;SDS011;17473;52.286;20.930;2023-04-28T09:36:28;5.85;;;2.50;;
30723;SDS011;17473;52.286;20.930;2023-04-28T09:38:56;6.18;;;2.47;;
30723;SDS011;17473;52.286;20.930;2023-04-28T09:41:43;6.72;;;2.70;;
30723;SDS011;17473;52.286;20.930;2023-04-28T09:46:39;8.38;;;3.00;;
30723;SDS011;17473;52.286;20.930;2023-04-28T09:49:07;8.05;;;3.00;;
30723;SDS011;17473;52.286;20.930;2023-04-28T09:51:34;6.32;;;3.00;;
30723;SDS011;17473;52.286;20.930;2023-04-28T09:54:02;4.55;;;2.05;;
30723;SDS011;17473;52.286;20.930;2023-04-28T09:56:31;5.13;;;2.72;;
30723;SDS011;17473;52.286;20.930;2023-04-28T09:59:06;9.27;;;2.55;;
30723;SDS011;17473;52.286;20.930;2023-04-28T10:01:36;4.57;;;2.40;;
30723;SDS011;17473;52.286;20.930;2023-04-28T10:04:06;6.97;;;2.58;;
30723;SDS011;17473;52.286;20.930;2023-04-28T10:06:34;9.48;;;2.40;;
30723;SDS011;17473;52.286;20.930;2023-04-28T10:09:02;8.57;;;3.08;;
30723;SDS011;17473;52.286;20.930;2023-04-28T10:11:30;8.48;;;2.50;;
30723;SDS011;17473;52.286;20.930;2023-04-28T10:13:59;6.38;;;2.97;;
30723;SDS011;17473;52.286;20.930;2023-04-28T10:16:26;13.95;;;3.28;;
30723;SDS011;17473;52.286;20.930;2023-04-28T10:18:58;8.02;;;2.95;;
30723;SDS011;17473;52.286;20.930;2023-04-28T10:21:27;12.30;;;3.45;;
30723;SDS011;17473;52.286;20.930;2023-04-28T10:29:34;7.20;;;3.90;;
30723;SDS011;17473;52.286;20.930;2023-04-28T10:34:47;9.55;;;2.92;;
30723;SDS011;17473;52.286;20.930;2023-04-28T10:37:14;8.50;;;3.17;;
30723;SDS011;17473;52.286;20.930;2023-04-28T10:42:56;6.53;;;3.03;;
30723;SDS011;17473;52.286;20.930;2023-04-28T10:49:08;6.00;;;2.60;;
30723;SDS011;17473;52.286;20.930;2023-04-28T11:04:06;5.30;;;3.20;;
30723;SDS011;17473;52.286;20.930;2023-04-28T11:06:43;5.15;;;2.60;;
30723;SDS011;17473;52.286;20.930;2023-04-28T11:14:31;8.55;;;4.82;;
30723;SDS011;17473;52.286;20.930;2023-04-28T11:17:01;7.22;;;4.07;;
30723;SDS011;17473;52.286;20.930;2023-04-28T11:19:43;7.72;;;3.35;;
30723;SDS011;17473;52.286;20.930;2023-04-28T11:24:58;5.68;;;2.58;;
30723;SDS011;17473;52.286;20.930;2023-04-28T11:27:31;6.28;;;2.72;;
30723;SDS011;17473;52.286;20.930;2023-04-28T11:29:59;10.40;;;4.03;;
30723;SDS011;17473;52.286;20.930;2023-04-28T11:34:56;7.32;;;3.10;;
30723;SDS011;17473;52.286;20.930;2023-04-28T11:37:24;10.07;;;3.58;;
30723;SDS011;17473;52.286;20.930;2023-04-28T11:39:52;10.38;;;3.72;;
30723;SDS011;17473;52.286;20.930;2023-04-28T11:42:19;5.13;;;2.80;;
30723;SDS011;17473;52.286;20.930;2023-04-28T11:44:50;7.03;;;2.80;;
30723;SDS011;17473;52.286;20.930;2023-04-28T11:47:31;6.80;;;3.17;;
30723;SDS011;17473;52.286;20.930;2023-04-28T11:49:59;10.30;;;3.20;;
30723;SDS011;17473;52.286;20.930;2023-04-28T11:52:28;14.50;;;3.58;;
30723;SDS011;17473;52.286;20.930;2023-04-28T11:54:56;9.73;;;3.25;;
30723;SDS011;17473;52.286;20.930;2023-04-28T11:57:25;7.70;;;3.20;;
30723;SDS011;17473;52.286;20.930;2023-04-28T11:59:53;8.00;;;3.10;;
30723;SDS011;17473;52.286;20.930;2023-04-28T12:02:46;7.35;;;2.80;;
30723;SDS011;17473;52.286;20.930;2023-04-28T12:05:14;8.52;;;3.25;;
30723;SDS011;17473;52.286;20.930;2023-04-28T12:07:42;6.10;;;2.80;;
30723;SDS011;17473;52.286;20.930;2023-04-28T12:10:13;4.68;;;2.40;;
30723;SDS011;17473;52.286;20.930;2023-04-28T12:12:42;6.28;;;2.72;;
30723;SDS011;17473;52.286;20.930;2023-04-28T12:15:18;9.45;;;2.67;;
30723;SDS011;17473;52.286;20.930;2023-04-28T12:17:47;7.55;;;3.00;;
30723;SDS011;17473;52.286;20.930;2023-04-28T12:20:33;5.53;;;3.13;;
30723;SDS011;17473;52.286;20.930;2023-04-28T12:23:01;11.52;;;4.47;;
30723;SDS011;17473;52.286;20.930;2023-04-28T12:25:28;7.50;;;4.13;;
30723;SDS011;17473;52.286;20.930;2023-04-28T12:30:34;10.40;;;3.30;;
30723;SDS011;17473;52.286;20.930;2023-04-28T12:33:23;5.63;;;3.33;;
30723;SDS011;17473;52.286;20.930;2023-04-28T12:35:52;9.50;;;3.40;;
30723;SDS011;17473;52.286;20.930;2023-04-28T12:38:21;8.60;;;4.00;;
30723;SDS011;17473;52.286;20.930;2023-04-28T12:40:52;10.50;;;3.55;;
30723;SDS011;17473;52.286;20.930;2023-04-28T12:43:20;6.18;;;3.67;;
30723;SDS011;17473;52.286;20.930;2023-04-28T12:45:49;9.63;;;3.45;;
30723;SDS011;17473;52.286;20.930;2023-04-28T12:48:19;8.05;;;3.28;;
30723;SDS011;17473;52.286;20.930;2023-04-28T12:50:46;7.05;;;3.60;;
30723;SDS011;17473;52.286;20.930;2023-04-28T12:53:13;7.22;;;3.38;;
30723;SDS011;17473;52.286;20.930;2023-04-28T12:55:40;7.05;;;3.80;;
30723;SDS011;17473;52.286;20.930;2023-04-28T12:58:07;7.45;;;3.70;;
30723;SDS011;17473;52.286;20.930;2023-04-28T13:00:34;5.75;;;3.67;;
30723;SDS011;17473;52.286;20.930;2023-04-28T13:03:02;4.10;;;3.28;;
30723;SDS011;17473;52.286;20.930;2023-04-28T13:05:30;11.77;;;3.40;;
30723;SDS011;17473;52.286;20.930;2023-04-28T13:07:57;6.88;;;3.70;;
30723;SDS011;17473;52.286;20.930;2023-04-28T13:10:25;10.05;;;3.85;;
30723;SDS011;17473;52.286;20.930;2023-04-28T13:12:52;9.32;;;4.03;;
30723;SDS011;17473;52.286;20.930;2023-04-28T13:15:19;8.20;;;3.50;;
30723;SDS011;17473;52.286;20.930;2023-04-28T13:17:46;7.88;;;3.70;;
30723;SDS011;17473;52.286;20.930;2023-04-28T13:20:14;9.40;;;3.97;;
30723;SDS011;17473;52.286;20.930;2023-04-28T13:22:41;7.60;;;4.03;;
30723;SDS011;17473;52.286;20.930;2023-04-28T13:25:08;17.17;;;4.88;;
30723;SDS011;17473;52.286;20.930;2023-04-28T13:27:35;9.30;;;4.43;;
30723;SDS011;17473;52.286;20.930;2023-04-28T13:30:04;10.23;;;4.38;;
30723;SDS011;17473;52.286;20.930;2023-04-28T13:32:31;13.00;;;4.72;;
30723;SDS011;17473;52.286;20.930;2023-04-28T13:34:58;7.72;;;3.60;;
30723;SDS011;17473;52.286;20.930;2023-04-28T13:37:25;10.85;;;4.55;;
30723;SDS011;17473;52.286;20.930;2023-04-28T13:39:53;8.88;;;4.28;;
30723;SDS011;17473;52.286;20.930;2023-04-28T13:42:20;5.90;;;4.07;;
30723;SDS011;17473;52.286;20.930;2023-04-28T13:44:47;20.63;;;4.60;;
30723;SDS011;17473;52.286;20.930;2023-04-28T13:47:14;7.65;;;4.53;;
30723;SDS011;17473;52.286;20.930;2023-04-28T13:49:41;10.10;;;5.50;;
30723;SDS011;17473;52.286;20.930;2023-04-28T13:52:08;10.52;;;4.55;;
30723;SDS011;17473;52.286;20.930;2023-04-28T13:54:35;9.68;;;4.80;;
30723;SDS011;17473;52.286;20.930;2023-04-28T13:57:02;8.60;;;5.78;;
30723;SDS011;17473;52.286;20.930;2023-04-28T13:59:29;11.13;;;4.72;;
30723;SDS011;17473;52.286;20.930;2023-04-28T14:01:57;7.78;;;4.40;;
30723;SDS011;17473;52.286;20.930;2023-04-28T14:04:24;9.18;;;4.47;;
30723;SDS011;17473;52.286;20.930;2023-04-28T14:06:51;6.10;;;4.80;;
30723;SDS011;17473;52.286;20.930;2023-04-28T14:09:18;8.23;;;4.40;;
30723;SDS011;17473;52.286;20.930;2023-04-28T14:11:45;8.30;;;4.78;;
30723;SDS011;17473;52.286;20.930;2023-04-28T14:14:13;7.82;;;4.28;;
30723;SDS011;17473;52.286;20.930;2023-04-28T14:16:40;11.18;;;5.10;;
30723;SDS011;17473;52.286;20.930;2023-04-28T14:19:07;6.80;;;4.28;;
30723;SDS011;17473;52.286;20.930;2023-04-28T14:21:35;7.25;;;4.85;;
30723;SDS011;17473;52.286;20.930;2023-04-28T14:24:02;13.95;;;4.68;;
30723;SDS011;17473;52.286;20.930;2023-04-28T14:26:29;10.55;;;4.50;;
30723;SDS011;17473;52.286;20.930;2023-04-28T14:28:56;13.35;;;5.38;;
30723;SDS011;17473;52.286;20.930;2023-04-28T14:31:25;12.13;;;4.57;;
30723;SDS011;17473;52.286;20.930;2023-04-28T14:33:53;6.38;;;4.40;;
30723;SDS011;17473;52.286;20.930;2023-04-28T14:36:20;9.90;;;4.47;;
30723;SDS011;17473;52.286;20.930;2023-04-28T14:38:47;6.47;;;4.68;;
30723;SDS011;17473;52.286;20.930;2023-04-28T14:41:14;8.80;;;4.65;;
30723;SDS011;17473;52.286;20.930;2023-04-28T14:43:41;7.00;;;4.18;;
30723;SDS011;17473;52.286;20.930;2023-04-28T14:46:09;10.02;;;5.18;;
30723;SDS011;17473;52.286;20.930;2023-04-28T14:48:36;7.38;;;4.57;;
30723;SDS011;17473;52.286;20.930;2023-04-28T14:51:03;9.15;;;5.10;;
30723;SDS011;17473;52.286;20.930;2023-04-28T14:53:31;6.05;;;4.88;;
30723;SDS011;17473;52.286;20.930;2023-04-28T14:55:58;9.55;;;5.03;;
30723;SDS011;17473;52.286;20.930;2023-04-28T14:58:42;13.20;;;4.85;;
30723;SDS011;17473;52.286;20.930;2023-04-28T15:01:09;14.07;;;6.40;;
30723;SDS011;17473;52.286;20.930;2023-04-28T15:03:36;11.65;;;5.47;;
30723;SDS011;17473;52.286;20.930;2023-04-28T15:06:04;8.75;;;4.80;;
30723;SDS011;17473;52.286;20.930;2023-04-28T15:08:31;7.50;;;4.60;;
30723;SDS011;17473;52.286;20.930;2023-04-28T15:10:58;11.43;;;5.13;;